sensor_id;sensor_type;location;lat;lon;timestamp;P1;P2;P0
47081;PMS5003;33066;49.296;14.470;2022-07-24T00:01:37;24;23;
47081;PMS5003;33066;49.296;14.470;2022-07-24T00:04:02;20;20;
47081;PMS5003;33066;49.296;14.470;2022-07-24T00:06:28;21;20;
47081;PMS5003;33066;49.296;14.470;2022-07-24T00:08:54;16;12;
47081;PMS5003;33066;49.296;14.470;2022-07-24T00:11:19;16;15;
47081;PMS5003;33066;49.296;14.470;2022-07-24T00:13:44;20;18;
47081;PMS5003;33066;49.296;14.470;2022-07-24T00:16:10;18;15;
47081;PMS5003;33066;49.296;14.470;2022-07-24T00:18:35;19;19;
47081;PMS5003;33066;49.296;14.470;2022-07-24T00:21:01;23;20;
47081;PMS5003;33066;49.296;14.470;2022-07-24T00:23:26;14;14;
47081;PMS5003;33066;49.296;14.470;2022-07-24T00:25:52;21;19;
47081;PMS5003;33066;49.296;14.470;2022-07-24T00:28:17;20;20;
47081;PMS5003;33066;49.296;14.470;2022-07-24T00:30:42;21;20;
47081;PMS5003;33066;49.296;14.470;2022-07-24T00:33:07;17;16;
47081;PMS5003;33066;49.296;14.470;2022-07-24T00:35:33;15;15;
47081;PMS5003;33066;49.296;14.470;2022-07-24T00:37:59;16;16;
47081;PMS5003;33066;49.296;14.470;2022-07-24T00:40:24;19;18;
47081;PMS5003;33066;49.296;14.470;2022-07-24T00:42:49;22;17;
47081;PMS5003;33066;49.296;14.470;2022-07-24T00:45:15;20;17;
47081;PMS5003;33066;49.296;14.470;2022-07-24T00:47:40;27;26;
47081;PMS5003;33066;49.296;14.470;2022-07-24T00:50:07;29;24;
47081;PMS5003;33066;49.296;14.470;2022-07-24T00:52:32;24;22;
47081;PMS5003;33066;49.296;14.470;2022-07-24T00:54:57;15;14;
47081;PMS5003;33066;49.296;14.470;2022-07-24T00:57:23;22;22;
47081;PMS5003;33066;49.296;14.470;2022-07-24T00:59:49;21;20;
47081;PMS5003;33066;49.296;14.470;2022-07-24T01:02:15;20;16;
47081;PMS5003;33066;49.296;14.470;2022-07-24T01:04:40;17;16;
47081;PMS5003;33066;49.296;14.470;2022-07-24T01:07:06;22;22;
47081;PMS5003;33066;49.296;14.470;2022-07-24T01:09:31;24;21;
47081;PMS5003;33066;49.296;14.470;2022-07-24T01:11:56;21;18;
47081;PMS5003;33066;49.296;14.470;2022-07-24T01:14:22;19;18;
47081;PMS5003;33066;49.296;14.470;2022-07-24T01:16:48;19;19;
47081;PMS5003;33066;49.296;14.470;2022-07-24T01:19:14;19;19;
47081;PMS5003;33066;49.296;14.470;2022-07-24T01:21:41;24;22;
47081;PMS5003;33066;49.296;14.470;2022-07-24T01:24:04;18;17;
47081;PMS5003;33066;49.296;14.470;2022-07-24T01:26:30;20;15;
47081;PMS5003;33066;49.296;14.470;2022-07-24T01:28:55;19;17;
47081;PMS5003;33066;49.296;14.470;2022-07-24T01:31:20;15;13;
47081;PMS5003;33066;49.296;14.470;2022-07-24T01:33:46;14;14;
47081;PMS5003;33066;49.296;14.470;2022-07-24T01:36:11;21;21;
47081;PMS5003;33066;49.296;14.470;2022-07-24T01:38:36;17;17;
47081;PMS5003;33066;49.296;14.470;2022-07-24T01:41:01;20;18;
47081;PMS5003;33066;49.296;14.470;2022-07-24T01:43:26;25;23;
47081;PMS5003;33066;49.296;14.470;2022-07-24T01:45:52;17;17;
47081;PMS5003;33066;49.296;14.470;2022-07-24T01:48:17;18;18;
47081;PMS5003;33066;49.296;14.470;2022-07-24T01:50:43;16;15;
47081;PMS5003;33066;49.296;14.470;2022-07-24T01:53:08;16;15;
47081;PMS5003;33066;49.296;14.470;2022-07-24T01:55:33;17;17;
47081;PMS5003;33066;49.296;14.470;2022-07-24T01:57:58;18;14;
47081;PMS5003;33066;49.296;14.470;2022-07-24T02:00:24;19;18;
47081;PMS5003;33066;49.296;14.470;2022-07-24T02:02:50;25;21;
47081;PMS5003;33066;49.296;14.470;2022-07-24T02:05:15;21;21;
47081;PMS5003;33066;49.296;14.470;2022-07-24T02:07:41;17;17;
47081;PMS5003;33066;49.296;14.470;2022-07-24T02:10:07;19;16;
47081;PMS5003;33066;49.296;14.470;2022-07-24T02:12:32;17;15;
47081;PMS5003;33066;49.296;14.470;2022-07-24T02:14:57;20;18;
47081;PMS5003;33066;49.296;14.470;2022-07-24T02:17:22;22;20;
47081;PMS5003;33066;49.296;14.470;2022-07-24T02:19:47;24;23;
47081;PMS5003;33066;49.296;14.470;2022-07-24T02:22:13;20;17;
47081;PMS5003;33066;49.296;14.470;2022-07-24T02:24:39;19;17;
47081;PMS5003;33066;49.296;14.470;2022-07-24T02:27:04;14;14;
47081;PMS5003;33066;49.296;14.470;2022-07-24T02:29:29;18;15;
47081;PMS5003;33066;49.296;14.470;2022-07-24T02:31:54;14;14;
47081;PMS5003;33066;49.296;14.470;2022-07-24T02:34:20;17;17;
47081;PMS5003;33066;49.296;14.470;2022-07-24T02:36:45;21;21;
47081;PMS5003;33066;49.296;14.470;2022-07-24T02:39:11;23;23;
47081;PMS5003;33066;49.296;14.470;2022-07-24T02:41:36;17;16;
47081;PMS5003;33066;49.296;14.470;2022-07-24T02:44:01;27;23;
47081;PMS5003;33066;49.296;14.470;2022-07-24T02:46:26;16;15;
47081;PMS5003;33066;49.296;14.470;2022-07-24T02:48:52;21;17;
47081;PMS5003;33066;49.296;14.470;2022-07-24T02:51:17;20;19;
47081;PMS5003;33066;49.296;14.470;2022-07-24T02:53:43;26;24;
47081;PMS5003;33066;49.296;14.470;2022-07-24T02:56:08;24;22;
47081;PMS5003;33066;49.296;14.470;2022-07-24T02:58:34;19;19;
47081;PMS5003;33066;49.296;14.470;2022-07-24T03:01:00;23;21;
47081;PMS5003;33066;49.296;14.470;2022-07-24T03:03:25;23;22;
47081;PMS5003;33066;49.296;14.470;2022-07-24T03:05:51;19;17;
47081;PMS5003;33066;49.296;14.470;2022-07-24T03:08:16;20;17;
47081;PMS5003;33066;49.296;14.470;2022-07-24T03:12:57;23;19;
47081;PMS5003;33066;49.296;14.470;2022-07-24T03:15:22;22;22;
47081;PMS5003;33066;49.296;14.470;2022-07-24T03:17:48;28;22;
47081;PMS5003;33066;49.296;14.470;2022-07-24T03:20:14;23;18;
47081;PMS5003;33066;49.296;14.470;2022-07-24T03:22:40;18;18;
47081;PMS5003;33066;49.296;14.470;2022-07-24T03:25:05;20;17;
47081;PMS5003;33066;49.296;14.470;2022-07-24T03:27:30;22;22;
47081;PMS5003;33066;49.296;14.470;2022-07-24T03:29:57;22;20;
47081;PMS5003;33066;49.296;14.470;2022-07-24T03:32:22;19;18;
47081;PMS5003;33066;49.296;14.470;2022-07-24T03:34:48;19;19;
47081;PMS5003;33066;49.296;14.470;2022-07-24T03:37:12;17;14;
47081;PMS5003;33066;49.296;14.470;2022-07-24T03:39:38;16;13;
47081;PMS5003;33066;49.296;14.470;2022-07-24T03:42:03;23;20;
47081;PMS5003;33066;49.296;14.470;2022-07-24T03:44:29;18;18;
47081;PMS5003;33066;49.296;14.470;2022-07-24T03:46:54;21;19;
47081;PMS5003;33066;49.296;14.470;2022-07-24T03:49:19;18;17;
47081;PMS5003;33066;49.296;14.470;2022-07-24T03:51:45;21;18;
47081;PMS5003;33066;49.296;14.470;2022-07-24T03:54:10;24;21;
47081;PMS5003;33066;49.296;14.470;2022-07-24T03:56:35;20;18;
47081;PMS5003;33066;49.296;14.470;2022-07-24T03:59:01;17;15;
47081;PMS5003;33066;49.296;14.470;2022-07-24T04:01:27;25;23;
47081;PMS5003;33066;49.296;14.470;2022-07-24T04:03:52;20;19;
47081;PMS5003;33066;49.296;14.470;2022-07-24T04:06:18;19;18;
47081;PMS5003;33066;49.296;14.470;2022-07-24T04:08:43;25;24;
47081;PMS5003;33066;49.296;14.470;2022-07-24T04:11:09;19;19;
47081;PMS5003;33066;49.296;14.470;2022-07-24T04:13:35;19;19;
47081;PMS5003;33066;49.296;14.470;2022-07-24T04:16:00;21;18;
47081;PMS5003;33066;49.296;14.470;2022-07-24T04:18:26;20;20;
47081;PMS5003;33066;49.296;14.470;2022-07-24T04:20:52;22;18;
47081;PMS5003;33066;49.296;14.470;2022-07-24T04:23:16;29;26;
47081;PMS5003;33066;49.296;14.470;2022-07-24T04:25:42;21;21;
47081;PMS5003;33066;49.296;14.470;2022-07-24T04:28:07;14;14;
47081;PMS5003;33066;49.296;14.470;2022-07-24T04:30:33;21;19;
47081;PMS5003;33066;49.296;14.470;2022-07-24T04:32:58;20;19;
47081;PMS5003;33066;49.296;14.470;2022-07-24T04:35:23;27;25;
47081;PMS5003;33066;49.296;14.470;2022-07-24T04:37:49;25;21;
47081;PMS5003;33066;49.296;14.470;2022-07-24T04:40:14;20;17;
47081;PMS5003;33066;49.296;14.470;2022-07-24T04:42:40;19;18;
47081;PMS5003;33066;49.296;14.470;2022-07-24T04:45:06;20;19;
47081;PMS5003;33066;49.296;14.470;2022-07-24T04:47:31;19;16;
47081;PMS5003;33066;49.296;14.470;2022-07-24T04:49:56;23;23;
47081;PMS5003;33066;49.296;14.470;2022-07-24T04:52:22;21;21;
47081;PMS5003;33066;49.296;14.470;2022-07-24T04:54:47;22;21;
47081;PMS5003;33066;49.296;14.470;2022-07-24T04:57:13;20;19;
47081;PMS5003;33066;49.296;14.470;2022-07-24T04:59:39;23;21;
47081;PMS5003;33066;49.296;14.470;2022-07-24T05:02:04;23;20;
47081;PMS5003;33066;49.296;14.470;2022-07-24T05:04:29;20;19;
47081;PMS5003;33066;49.296;14.470;2022-07-24T05:06:54;20;20;
47081;PMS5003;33066;49.296;14.470;2022-07-24T05:09:20;20;19;
47081;PMS5003;33066;49.296;14.470;2022-07-24T05:11:46;22;21;
47081;PMS5003;33066;49.296;14.470;2022-07-24T05:14:11;22;20;
47081;PMS5003;33066;49.296;14.470;2022-07-24T05:16:37;22;21;
47081;PMS5003;33066;49.296;14.470;2022-07-24T05:19:02;34;32;
47081;PMS5003;33066;49.296;14.470;2022-07-24T05:21:28;45;45;
47081;PMS5003;33066;49.296;14.470;2022-07-24T05:23:53;25;25;
47081;PMS5003;33066;49.296;14.470;2022-07-24T05:26:18;20;19;
47081;PMS5003;33066;49.296;14.470;2022-07-24T05:28:44;23;21;
47081;PMS5003;33066;49.296;14.470;2022-07-24T05:31:10;38;35;
47081;PMS5003;33066;49.296;14.470;2022-07-24T05:33:35;31;30;
47081;PMS5003;33066;49.296;14.470;2022-07-24T05:36:01;39;36;
47081;PMS5003;33066;49.296;14.470;2022-07-24T05:38:25;37;32;
47081;PMS5003;33066;49.296;14.470;2022-07-24T05:40:51;46;41;
47081;PMS5003;33066;49.296;14.470;2022-07-24T05:43:16;38;34;
47081;PMS5003;33066;49.296;14.470;2022-07-24T05:45:41;39;35;
47081;PMS5003;33066;49.296;14.470;2022-07-24T05:48:07;37;25;
47081;PMS5003;33066;49.296;14.470;2022-07-24T05:50:32;27;25;
47081;PMS5003;33066;49.296;14.470;2022-07-24T05:52:57;27;23;
47081;PMS5003;33066;49.296;14.470;2022-07-24T05:55:22;33;32;
47081;PMS5003;33066;49.296;14.470;2022-07-24T05:57:49;29;26;
47081;PMS5003;33066;49.296;14.470;2022-07-24T06:00:14;22;22;
47081;PMS5003;33066;49.296;14.470;2022-07-24T06:02:39;22;20;
47081;PMS5003;33066;49.296;14.470;2022-07-24T06:05:04;27;25;
47081;PMS5003;33066;49.296;14.470;2022-07-24T06:07:29;32;27;
47081;PMS5003;33066;49.296;14.470;2022-07-24T06:09:54;26;24;
47081;PMS5003;33066;49.296;14.470;2022-07-24T06:12:20;37;34;
47081;PMS5003;33066;49.296;14.470;2022-07-24T06:14:46;26;25;
47081;PMS5003;33066;49.296;14.470;2022-07-24T06:17:11;27;25;
47081;PMS5003;33066;49.296;14.470;2022-07-24T06:19:36;30;30;
47081;PMS5003;33066;49.296;14.470;2022-07-24T06:22:02;30;28;
47081;PMS5003;33066;49.296;14.470;2022-07-24T06:24:27;30;28;
47081;PMS5003;33066;49.296;14.470;2022-07-24T06:26:53;29;28;
47081;PMS5003;33066;49.296;14.470;2022-07-24T06:29:19;29;29;
47081;PMS5003;33066;49.296;14.470;2022-07-24T06:31:44;30;29;
47081;PMS5003;33066;49.296;14.470;2022-07-24T06:34:10;32;28;
47081;PMS5003;33066;49.296;14.470;2022-07-24T06:36:36;35;29;
47081;PMS5003;33066;49.296;14.470;2022-07-24T06:39:01;28;27;
47081;PMS5003;33066;49.296;14.470;2022-07-24T06:41:27;36;29;
47081;PMS5003;33066;49.296;14.470;2022-07-24T06:43:52;23;23;
47081;PMS5003;33066;49.296;14.470;2022-07-24T06:46:17;28;26;
47081;PMS5003;33066;49.296;14.470;2022-07-24T06:48:42;26;25;
47081;PMS5003;33066;49.296;14.470;2022-07-24T06:51:08;28;25;
47081;PMS5003;33066;49.296;14.470;2022-07-24T06:53:33;21;20;
47081;PMS5003;33066;49.296;14.470;2022-07-24T06:55:59;26;26;
47081;PMS5003;33066;49.296;14.470;2022-07-24T06:58:24;22;22;
47081;PMS5003;33066;49.296;14.470;2022-07-24T07:00:50;28;26;
47081;PMS5003;33066;49.296;14.470;2022-07-24T07:03:17;28;25;
47081;PMS5003;33066;49.296;14.470;2022-07-24T07:05:40;22;22;
47081;PMS5003;33066;49.296;14.470;2022-07-24T07:08:06;20;19;
47081;PMS5003;33066;49.296;14.470;2022-07-24T07:10:31;25;24;
47081;PMS5003;33066;49.296;14.470;2022-07-24T07:12:56;27;26;
47081;PMS5003;33066;49.296;14.470;2022-07-24T07:15:22;23;21;
47081;PMS5003;33066;49.296;14.470;2022-07-24T07:17:48;23;21;
47081;PMS5003;33066;49.296;14.470;2022-07-24T07:20:13;24;24;
47081;PMS5003;33066;49.296;14.470;2022-07-24T07:22:38;26;26;
47081;PMS5003;33066;49.296;14.470;2022-07-24T07:25:04;27;23;
47081;PMS5003;33066;49.296;14.470;2022-07-24T07:27:29;39;36;
47081;PMS5003;33066;49.296;14.470;2022-07-24T07:29:55;30;27;
47081;PMS5003;33066;49.296;14.470;2022-07-24T07:32:20;26;24;
47081;PMS5003;33066;49.296;14.470;2022-07-24T07:34:46;22;20;
47081;PMS5003;33066;49.296;14.470;2022-07-24T07:37:11;19;17;
47081;PMS5003;33066;49.296;14.470;2022-07-24T07:39:36;26;21;
47081;PMS5003;33066;49.296;14.470;2022-07-24T07:42:02;24;24;
47081;PMS5003;33066;49.296;14.470;2022-07-24T07:44:28;22;20;
47081;PMS5003;33066;49.296;14.470;2022-07-24T07:46:54;27;22;
47081;PMS5003;33066;49.296;14.470;2022-07-24T07:49:19;15;15;
47081;PMS5003;33066;49.296;14.470;2022-07-24T07:51:44;14;14;
47081;PMS5003;33066;49.296;14.470;2022-07-24T07:54:10;24;22;
47081;PMS5003;33066;49.296;14.470;2022-07-24T07:56:36;13;13;
47081;PMS5003;33066;49.296;14.470;2022-07-24T07:59:02;19;17;
47081;PMS5003;33066;49.296;14.470;2022-07-24T08:01:27;17;16;
47081;PMS5003;33066;49.296;14.470;2022-07-24T08:03:53;18;17;
47081;PMS5003;33066;49.296;14.470;2022-07-24T08:06:18;18;16;
47081;PMS5003;33066;49.296;14.470;2022-07-24T08:08:44;20;19;
47081;PMS5003;33066;49.296;14.470;2022-07-24T08:11:09;15;14;
47081;PMS5003;33066;49.296;14.470;2022-07-24T08:13:34;30;24;
47081;PMS5003;33066;49.296;14.470;2022-07-24T08:15:59;19;15;
47081;PMS5003;33066;49.296;14.470;2022-07-24T08:18:25;13;13;
47081;PMS5003;33066;49.296;14.470;2022-07-24T08:20:50;15;14;
47081;PMS5003;33066;49.296;14.470;2022-07-24T08:23:16;16;13;
47081;PMS5003;33066;49.296;14.470;2022-07-24T08:25:41;20;17;
47081;PMS5003;33066;49.296;14.470;2022-07-24T08:28:07;23;19;
47081;PMS5003;33066;49.296;14.470;2022-07-24T08:30:32;12;12;
47081;PMS5003;33066;49.296;14.470;2022-07-24T08:32:58;15;14;
47081;PMS5003;33066;49.296;14.470;2022-07-24T08:35:23;12;11;
47081;PMS5003;33066;49.296;14.470;2022-07-24T08:37:49;15;12;
47081;PMS5003;33066;49.296;14.470;2022-07-24T08:40:15;16;12;
47081;PMS5003;33066;49.296;14.470;2022-07-24T08:42:40;15;15;
47081;PMS5003;33066;49.296;14.470;2022-07-24T08:45:06;14;12;
47081;PMS5003;33066;49.296;14.470;2022-07-24T08:47:31;14;14;
47081;PMS5003;33066;49.296;14.470;2022-07-24T08:49:56;12;11;
47081;PMS5003;33066;49.296;14.470;2022-07-24T08:52:22;10;10;
47081;PMS5003;33066;49.296;14.470;2022-07-24T08:54:48;15;14;
47081;PMS5003;33066;49.296;14.470;2022-07-24T08:57:13;14;11;
47081;PMS5003;33066;49.296;14.470;2022-07-24T08:59:39;11;10;
47081;PMS5003;33066;49.296;14.470;2022-07-24T09:02:04;22;18;
47081;PMS5003;33066;49.296;14.470;2022-07-24T09:04:31;21;18;
47081;PMS5003;33066;49.296;14.470;2022-07-24T09:06:56;16;14;
47081;PMS5003;33066;49.296;14.470;2022-07-24T09:09:22;16;15;
47081;PMS5003;33066;49.296;14.470;2022-07-24T09:11:47;18;17;
47081;PMS5003;33066;49.296;14.470;2022-07-24T09:14:12;13;13;
47081;PMS5003;33066;49.296;14.470;2022-07-24T09:16:38;15;14;
47081;PMS5003;33066;49.296;14.470;2022-07-24T09:19:05;15;15;
47081;PMS5003;33066;49.296;14.470;2022-07-24T09:21:30;17;17;
47081;PMS5003;33066;49.296;14.470;2022-07-24T09:23:54;17;14;
47081;PMS5003;33066;49.296;14.470;2022-07-24T09:26:19;15;14;
47081;PMS5003;33066;49.296;14.470;2022-07-24T09:28:46;16;14;
47081;PMS5003;33066;49.296;14.470;2022-07-24T09:31:09;12;12;
47081;PMS5003;33066;49.296;14.470;2022-07-24T09:33:35;18;18;
47081;PMS5003;33066;49.296;14.470;2022-07-24T09:36:01;14;10;
47081;PMS5003;33066;49.296;14.470;2022-07-24T09:38:26;10;9;
47081;PMS5003;33066;49.296;14.470;2022-07-24T09:40:53;16;15;
47081;PMS5003;33066;49.296;14.470;2022-07-24T09:43:19;17;14;
47081;PMS5003;33066;49.296;14.470;2022-07-24T09:45:52;14;12;
47081;PMS5003;33066;49.296;14.470;2022-07-24T09:48:09;15;15;
47081;PMS5003;33066;49.296;14.470;2022-07-24T09:50:35;16;15;
47081;PMS5003;33066;49.296;14.470;2022-07-24T09:53:00;17;13;
47081;PMS5003;33066;49.296;14.470;2022-07-24T09:55:26;12;12;
47081;PMS5003;33066;49.296;14.470;2022-07-24T09:57:51;17;15;
47081;PMS5003;33066;49.296;14.470;2022-07-24T10:00:17;12;11;
47081;PMS5003;33066;49.296;14.470;2022-07-24T10:02:43;18;16;
47081;PMS5003;33066;49.296;14.470;2022-07-24T10:05:08;14;13;
47081;PMS5003;33066;49.296;14.470;2022-07-24T10:07:33;21;17;
47081;PMS5003;33066;49.296;14.470;2022-07-24T10:09:59;15;14;
47081;PMS5003;33066;49.296;14.470;2022-07-24T10:12:25;15;14;
47081;PMS5003;33066;49.296;14.470;2022-07-24T10:14:50;16;15;
47081;PMS5003;33066;49.296;14.470;2022-07-24T10:17:16;14;11;
47081;PMS5003;33066;49.296;14.470;2022-07-24T10:19:41;15;14;
47081;PMS5003;33066;49.296;14.470;2022-07-24T10:22:08;17;14;
47081;PMS5003;33066;49.296;14.470;2022-07-24T10:27:00;13;12;
47081;PMS5003;33066;49.296;14.470;2022-07-24T10:29:23;10;10;
47081;PMS5003;33066;49.296;14.470;2022-07-24T10:31:48;18;15;
47081;PMS5003;33066;49.296;14.470;2022-07-24T10:34:15;14;11;
47081;PMS5003;33066;49.296;14.470;2022-07-24T10:36:39;14;12;
47081;PMS5003;33066;49.296;14.470;2022-07-24T10:39:15;14;12;
47081;PMS5003;33066;49.296;14.470;2022-07-24T10:41:29;17;11;
47081;PMS5003;33066;49.296;14.470;2022-07-24T10:46:21;13;13;
47081;PMS5003;33066;49.296;14.470;2022-07-24T10:48:46;18;16;
47081;PMS5003;33066;49.296;14.470;2022-07-24T10:51:13;14;13;
47081;PMS5003;33066;49.296;14.470;2022-07-24T10:53:44;17;17;
47081;PMS5003;33066;49.296;14.470;2022-07-24T10:58:28;11;11;
47081;PMS5003;33066;49.296;14.470;2022-07-24T11:00:53;15;14;
47081;PMS5003;33066;49.296;14.470;2022-07-24T11:03:20;14;13;
47081;PMS5003;33066;49.296;14.470;2022-07-24T11:10:44;13;13;
47081;PMS5003;33066;49.296;14.470;2022-07-24T11:13:01;11;11;
47081;PMS5003;33066;49.296;14.470;2022-07-24T11:15:26;10;9;
47081;PMS5003;33066;49.296;14.470;2022-07-24T11:17:51;12;11;
47081;PMS5003;33066;49.296;14.470;2022-07-24T11:20:17;14;14;
47081;PMS5003;33066;49.296;14.470;2022-07-24T11:22:43;9;9;
47081;PMS5003;33066;49.296;14.470;2022-07-24T11:25:08;12;11;
47081;PMS5003;33066;49.296;14.470;2022-07-24T11:29:58;9;9;
47081;PMS5003;33066;49.296;14.470;2022-07-24T11:32:24;14;10;
47081;PMS5003;33066;49.296;14.470;2022-07-24T11:34:50;22;20;
47081;PMS5003;33066;49.296;14.470;2022-07-24T11:37:15;12;11;
47081;PMS5003;33066;49.296;14.470;2022-07-24T11:39:41;13;13;
47081;PMS5003;33066;49.296;14.470;2022-07-24T11:42:06;12;12;
47081;PMS5003;33066;49.296;14.470;2022-07-24T11:44:32;16;13;
47081;PMS5003;33066;49.296;14.470;2022-07-24T11:46:57;13;13;
47081;PMS5003;33066;49.296;14.470;2022-07-24T11:49:22;12;11;
47081;PMS5003;33066;49.296;14.470;2022-07-24T11:51:48;10;10;
47081;PMS5003;33066;49.296;14.470;2022-07-24T11:54:14;16;13;
47081;PMS5003;33066;49.296;14.470;2022-07-24T11:56:38;18;16;
47081;PMS5003;33066;49.296;14.470;2022-07-24T11:59:04;14;14;
47081;PMS5003;33066;49.296;14.470;2022-07-24T12:01:29;13;11;
47081;PMS5003;33066;49.296;14.470;2022-07-24T12:03:56;12;9;
47081;PMS5003;33066;49.296;14.470;2022-07-24T12:06:20;12;11;
47081;PMS5003;33066;49.296;14.470;2022-07-24T12:08:46;11;10;
47081;PMS5003;33066;49.296;14.470;2022-07-24T12:11:12;10;10;
47081;PMS5003;33066;49.296;14.470;2022-07-24T12:13:40;14;14;
47081;PMS5003;33066;49.296;14.470;2022-07-24T12:16:03;11;11;
47081;PMS5003;33066;49.296;14.470;2022-07-24T12:18:29;15;12;
47081;PMS5003;33066;49.296;14.470;2022-07-24T12:20:58;17;15;
47081;PMS5003;33066;49.296;14.470;2022-07-24T12:23:19;14;10;
47081;PMS5003;33066;49.296;14.470;2022-07-24T12:25:45;12;12;
47081;PMS5003;33066;49.296;14.470;2022-07-24T12:28:12;17;13;
47081;PMS5003;33066;49.296;14.470;2022-07-24T12:30:37;11;11;
47081;PMS5003;33066;49.296;14.470;2022-07-24T12:33:03;16;15;
47081;PMS5003;33066;49.296;14.470;2022-07-24T12:35:28;14;10;
47081;PMS5003;33066;49.296;14.470;2022-07-24T12:37:53;20;18;
47081;PMS5003;33066;49.296;14.470;2022-07-24T12:40:22;13;12;
47081;PMS5003;33066;49.296;14.470;2022-07-24T12:42:43;9;8;
47081;PMS5003;33066;49.296;14.470;2022-07-24T12:45:09;13;13;
47081;PMS5003;33066;49.296;14.470;2022-07-24T12:47:34;12;12;
47081;PMS5003;33066;49.296;14.470;2022-07-24T12:50:10;8;8;
47081;PMS5003;33066;49.296;14.470;2022-07-24T12:52:25;14;10;
47081;PMS5003;33066;49.296;14.470;2022-07-24T12:54:51;12;11;
47081;PMS5003;33066;49.296;14.470;2022-07-24T12:57:16;11;9;
47081;PMS5003;33066;49.296;14.470;2022-07-24T12:59:42;12;10;
47081;PMS5003;33066;49.296;14.470;2022-07-24T13:02:08;11;11;
47081;PMS5003;33066;49.296;14.470;2022-07-24T13:04:33;21;18;
47081;PMS5003;33066;49.296;14.470;2022-07-24T13:06:59;14;14;
47081;PMS5003;33066;49.296;14.470;2022-07-24T13:09:23;11;11;
47081;PMS5003;33066;49.296;14.470;2022-07-24T13:11:50;14;14;
47081;PMS5003;33066;49.296;14.470;2022-07-24T13:14:14;12;12;
47081;PMS5003;33066;49.296;14.470;2022-07-24T13:16:40;10;9;
47081;PMS5003;33066;49.296;14.470;2022-07-24T13:19:05;11;10;
47081;PMS5003;33066;49.296;14.470;2022-07-24T13:21:30;14;13;
47081;PMS5003;33066;49.296;14.470;2022-07-24T13:23:55;11;11;
47081;PMS5003;33066;49.296;14.470;2022-07-24T13:26:21;12;10;
47081;PMS5003;33066;49.296;14.470;2022-07-24T13:28:46;11;11;
47081;PMS5003;33066;49.296;14.470;2022-07-24T13:31:12;9;9;
47081;PMS5003;33066;49.296;14.470;2022-07-24T13:33:37;13;13;
47081;PMS5003;33066;49.296;14.470;2022-07-24T13:36:03;11;11;
47081;PMS5003;33066;49.296;14.470;2022-07-24T13:38:29;11;10;
47081;PMS5003;33066;49.296;14.470;2022-07-24T13:40:54;9;9;
47081;PMS5003;33066;49.296;14.470;2022-07-24T13:43:19;14;13;
47081;PMS5003;33066;49.296;14.470;2022-07-24T13:45:45;14;13;
47081;PMS5003;33066;49.296;14.470;2022-07-24T13:48:11;11;11;
47081;PMS5003;33066;49.296;14.470;2022-07-24T13:50:36;11;11;
47081;PMS5003;33066;49.296;14.470;2022-07-24T13:53:01;10;10;
47081;PMS5003;33066;49.296;14.470;2022-07-24T13:55:26;8;8;
47081;PMS5003;33066;49.296;14.470;2022-07-24T13:57:52;12;10;
47081;PMS5003;33066;49.296;14.470;2022-07-24T14:00:17;12;11;
47081;PMS5003;33066;49.296;14.470;2022-07-24T14:02:43;11;11;
47081;PMS5003;33066;49.296;14.470;2022-07-24T14:05:08;12;12;
47081;PMS5003;33066;49.296;14.470;2022-07-24T14:07:34;10;9;
47081;PMS5003;33066;49.296;14.470;2022-07-24T14:09:59;14;11;
47081;PMS5003;33066;49.296;14.470;2022-07-24T14:12:25;10;10;
47081;PMS5003;33066;49.296;14.470;2022-07-24T14:14:50;10;10;
47081;PMS5003;33066;49.296;14.470;2022-07-24T14:17:16;13;11;
47081;PMS5003;33066;49.296;14.470;2022-07-24T14:19:42;15;13;
47081;PMS5003;33066;49.296;14.470;2022-07-24T14:22:07;14;11;
47081;PMS5003;33066;49.296;14.470;2022-07-24T14:24:33;15;13;
47081;PMS5003;33066;49.296;14.470;2022-07-24T14:26:58;9;9;
47081;PMS5003;33066;49.296;14.470;2022-07-24T14:29:24;13;11;
47081;PMS5003;33066;49.296;14.470;2022-07-24T14:31:49;11;11;
47081;PMS5003;33066;49.296;14.470;2022-07-24T14:34:15;9;9;
47081;PMS5003;33066;49.296;14.470;2022-07-24T14:36:41;14;12;
47081;PMS5003;33066;49.296;14.470;2022-07-24T14:39:06;10;10;
47081;PMS5003;33066;49.296;14.470;2022-07-24T14:41:31;11;11;
47081;PMS5003;33066;49.296;14.470;2022-07-24T14:43:57;14;11;
47081;PMS5003;33066;49.296;14.470;2022-07-24T14:46:22;9;9;
47081;PMS5003;33066;49.296;14.470;2022-07-24T14:48:48;9;9;
47081;PMS5003;33066;49.296;14.470;2022-07-24T14:51:14;11;11;
47081;PMS5003;33066;49.296;14.470;2022-07-24T14:53:40;9;9;
47081;PMS5003;33066;49.296;14.470;2022-07-24T14:56:05;10;7;
47081;PMS5003;33066;49.296;14.470;2022-07-24T14:58:30;13;13;
47081;PMS5003;33066;49.296;14.470;2022-07-24T15:00:56;10;9;
47081;PMS5003;33066;49.296;14.470;2022-07-24T15:03:21;16;14;
47081;PMS5003;33066;49.296;14.470;2022-07-24T15:05:46;8;8;
47081;PMS5003;33066;49.296;14.470;2022-07-24T15:08:11;9;9;
47081;PMS5003;33066;49.296;14.470;2022-07-24T15:10:37;13;10;
47081;PMS5003;33066;49.296;14.470;2022-07-24T15:13:02;10;10;
47081;PMS5003;33066;49.296;14.470;2022-07-24T15:15:27;10;9;
47081;PMS5003;33066;49.296;14.470;2022-07-24T15:17:53;11;11;
47081;PMS5003;33066;49.296;14.470;2022-07-24T15:20:18;15;13;
47081;PMS5003;33066;49.296;14.470;2022-07-24T15:22:43;10;10;
47081;PMS5003;33066;49.296;14.470;2022-07-24T15:25:09;16;16;
47081;PMS5003;33066;49.296;14.470;2022-07-24T15:27:34;11;11;
47081;PMS5003;33066;49.296;14.470;2022-07-24T15:30:00;11;10;
47081;PMS5003;33066;49.296;14.470;2022-07-24T15:32:25;14;12;
47081;PMS5003;33066;49.296;14.470;2022-07-24T15:34:51;10;10;
47081;PMS5003;33066;49.296;14.470;2022-07-24T15:37:16;13;10;
47081;PMS5003;33066;49.296;14.470;2022-07-24T15:39:41;10;10;
47081;PMS5003;33066;49.296;14.470;2022-07-24T15:42:07;11;9;
47081;PMS5003;33066;49.296;14.470;2022-07-24T15:44:32;11;9;
47081;PMS5003;33066;49.296;14.470;2022-07-24T15:46:57;12;12;
47081;PMS5003;33066;49.296;14.470;2022-07-24T15:49:23;10;10;
47081;PMS5003;33066;49.296;14.470;2022-07-24T15:51:49;13;11;
47081;PMS5003;33066;49.296;14.470;2022-07-24T15:54:14;9;8;
47081;PMS5003;33066;49.296;14.470;2022-07-24T15:56:39;12;10;
47081;PMS5003;33066;49.296;14.470;2022-07-24T15:59:05;17;16;
47081;PMS5003;33066;49.296;14.470;2022-07-24T16:01:31;10;10;
47081;PMS5003;33066;49.296;14.470;2022-07-24T16:03:56;11;11;
47081;PMS5003;33066;49.296;14.470;2022-07-24T16:06:21;10;9;
47081;PMS5003;33066;49.296;14.470;2022-07-24T16:08:47;9;9;